Time;durP1;ratioP1;P1;durP2;ratioP2;P2;SDS_P1;SDS_P2;PMS_P1;PMS_P2;Temp;Humidity;BMP_temperature;BMP_pressure;BME280_temperature;BME280_humidity;BME280_pressure;Samples;Min_cycle;Max_cycle;Signal;HPM_P1;HPM_P2
2023/09/02 00:02:15;;;;;;;10.20;5.60;;;;;;;16.37;85.19;99182.73;107947;1307;22240;-44
2023/09/02 00:04:40;;;;;;;10.50;5.90;;;;;;;16.35;85.44;99179.52;107947;1307;22413;-47
2023/09/02 00:07:06;;;;;;;10.60;5.40;;;;;;;16.34;85.30;99181.04;107940;1307;22377;-47
2023/09/02 00:09:31;;;;;;;10.20;5.20;;;;;;;16.33;85.69;99181.13;107936;1307;22234;-45
2023/09/02 00:11:56;;;;;;;10.40;5.60;;;;;;;16.32;85.80;99178.93;107964;1307;22214;-51
2023/09/02 00:14:21;;;;;;;12.30;6.00;;;;;;;16.31;85.83;99175.42;107989;1286;22436;-45
2023/09/02 00:16:47;;;;;;;9.30;4.90;;;;;;;16.31;86.14;99175.59;107966;1307;22407;-46
2023/09/02 00:19:12;;;;;;;10.40;5.80;;;;;;;16.30;86.29;99178.83;107942;1307;22407;-45
2023/09/02 00:21:37;;;;;;;9.50;5.60;;;;;;;16.29;86.56;99176.32;107965;1307;22287;-47
2023/09/02 00:24:05;;;;;;;9.50;5.10;;;;;;;16.28;86.72;99175.51;107964;1307;22828;-44
2023/09/02 00:26:31;;;;;;;10.50;5.40;;;;;;;16.26;86.86;99180.92;107943;1307;23045;-48
2023/09/02 00:28:57;;;;;;;11.00;5.80;;;;;;;16.25;87.04;99178.54;107943;1307;22262;-46
2023/09/02 00:31:22;;;;;;;15.00;5.60;;;;;;;16.23;86.97;99178.88;107941;1307;22962;-47
2023/09/02 00:33:48;;;;;;;10.30;5.20;;;;;;;16.23;86.57;99180.49;107954;1307;22224;-41
2023/09/02 00:36:14;;;;;;;13.10;5.30;;;;;;;16.23;86.33;99181.74;107971;1307;22955;-49
2023/09/02 00:38:39;;;;;;;16.50;5.70;;;;;;;16.22;86.52;99178.98;107965;1307;22256;-41
2023/09/02 00:41:07;;;;;;;9.00;5.10;;;;;;;16.21;86.55;99178.86;107948;1307;22513;-43
2023/09/02 00:43:33;;;;;;;8.50;4.80;;;;;;;16.21;86.45;99178.02;107924;1307;22207;-43
2023/09/02 00:45:59;;;;;;;11.40;5.00;;;;;;;16.20;86.18;99178.65;107940;1307;22249;-46
2023/09/02 00:48:24;;;;;;;8.50;4.90;;;;;;;16.20;86.33;99176.36;107951;1307;22222;-46
2023/09/02 00:50:49;;;;;;;14.30;5.10;;;;;;;16.19;86.51;99174.61;107967;1307;23258;-51
2023/09/02 00:53:16;;;;;;;10.50;4.90;;;;;;;16.18;86.99;99173.11;107961;1307;22249;-48
2023/09/02 00:55:41;;;;;;;7.80;5.00;;;;;;;16.17;87.54;99174.80;107951;1307;22222;-44
2023/09/02 00:58:07;;;;;;;9.20;4.90;;;;;;;16.14;87.72;99172.71;107942;1307;22444;-47
2023/09/02 01:00:32;;;;;;;12.90;5.80;;;;;;;16.11;87.69;99175.80;107931;1307;23055;-49
2023/09/02 01:02:58;;;;;;;12.60;5.10;;;;;;;16.08;87.76;99176.38;107936;1307;22233;-50
2023/09/02 01:05:24;;;;;;;13.20;5.40;;;;;;;16.05;87.85;99182.63;107943;1307;23485;-44
2023/09/02 01:07:51;;;;;;;15.00;5.00;;;;;;;16.02;87.60;99184.33;107943;1307;22224;-43
2023/09/02 01:10:18;;;;;;;11.80;5.00;;;;;;;15.98;88.31;99186.89;107954;1307;22373;-49
2023/09/02 01:12:44;;;;;;;9.80;5.70;;;;;;;15.96;88.57;99186.41;107978;1307;22358;-46
2023/09/02 01:15:09;;;;;;;12.10;5.10;;;;;;;15.93;88.76;99190.50;107939;1307;22575;-50
2023/09/02 01:17:35;;;;;;;9.60;5.20;;;;;;;15.89;89.17;99190.41;107880;1307;22208;-46
2023/09/02 01:20:03;;;;;;;10.20;5.00;;;;;;;15.86;89.38;99189.61;107809;1308;22263;-44
2023/09/02 01:22:58;;;;;;;10.90;5.30;;;;;;;15.83;89.45;99188.98;107832;1304;22211;-47
2023/09/02 01:25:50;;;;;;;11.10;5.50;;;;;;;15.79;89.52;99189.64;107814;1308;22198;-47
2023/09/02 01:28:20;;;;;;;8.60;5.10;;;;;;;15.75;89.78;99191.02;107785;1308;22208;-46
2023/09/02 01:30:48;;;;;;;12.90;5.30;;;;;;;15.71;90.14;99189.88;107811;1308;22229;-51
2023/09/02 01:33:16;;;;;;;8.50;5.50;;;;;;;15.67;90.55;99193.52;107806;1308;22231;-45
2023/09/02 01:35:43;;;;;;;10.70;5.50;;;;;;;15.63;90.37;99193.66;107842;1308;22190;-45
2023/09/02 01:38:10;;;;;;;9.50;5.00;;;;;;;15.58;90.57;99192.98;107665;1308;22220;-47
2023/09/02 01:40:36;;;;;;;14.90;5.20;;;;;;;15.54;90.57;99194.49;107826;1308;22816;-44
2023/09/02 01:43:03;;;;;;;11.80;5.60;;;;;;;15.51;90.97;99196.36;107782;1308;23418;-49
2023/09/02 01:45:33;;;;;;;10.40;5.90;;;;;;;15.48;91.29;99195.20;107856;1308;22625;-47
2023/09/02 01:47:59;;;;;;;12.70;5.30;;;;;;;15.46;91.40;99193.73;107801;1308;22242;-47
2023/09/02 01:50:28;;;;;;;9.70;5.00;;;;;;;15.47;91.70;99195.11;107809;1286;22186;-43
2023/09/02 01:52:55;;;;;;;11.40;5.10;;;;;;;15.47;92.23;99198.40;107777;1308;22173;-46
2023/09/02 01:55:21;;;;;;;;;;;;;;;15.48;92.55;99200.16;107810;1308;22439;-46
2023/09/02 01:57:47;;;;;;;9.00;5.00;;;;;;;15.46;93.52;99198.33;107789;1308;22313;-44
2023/09/02 02:00:13;;;;;;;11.70;5.40;;;;;;;15.44;93.93;99203.96;107811;1308;22245;-51
2023/09/02 02:02:39;;;;;;;12.10;6.10;;;;;;;15.42;93.97;99208.36;107789;1308;22449;-43
2023/09/02 02:05:16;;;;;;;9.60;5.20;;;;;;;15.40;93.79;99212.94;107830;1308;22207;-46
2023/09/02 02:07:44;;;;;;;12.80;5.20;;;;;;;15.38;93.40;99218.58;107797;1308;22393;-44
2023/09/02 02:10:16;;;;;;;10.50;5.50;;;;;;;15.37;93.19;99219.73;107803;1308;23193;-44
2023/09/02 02:12:42;;;;;;;10.00;5.50;;;;;;;15.34;93.87;99218.27;107803;1308;22399;-48
2023/09/02 02:15:12;;;;;;;10.40;5.90;;;;;;;15.33;93.83;99221.92;107834;1308;22483;-46
2023/09/02 02:17:38;;;;;;;13.40;5.60;;;;;;;15.30;93.86;99218.29;107797;1308;22471;-49
2023/09/02 02:20:04;;;;;;;14.70;5.90;;;;;;;15.27;94.23;99219.02;107816;1308;22264;-51
2023/09/02 02:22:30;;;;;;;11.80;6.00;;;;;;;15.23;94.54;99220.91;107786;1308;22439;-44
2023/09/02 02:24:55;;;;;;;11.60;5.20;;;;;;;15.19;94.47;99222.45;107780;1308;22237;-45
2023/09/02 02:27:20;;;;;;;16.70;5.70;;;;;;;15.14;94.00;99220.35;107786;1308;22126;-43
2023/09/02 02:29:46;;;;;;;11.10;5.50;;;;;;;15.11;95.30;99219.55;107785;1308;22231;-48
2023/09/02 02:32:11;;;;;;;19.10;6.20;;;;;;;15.07;95.18;99223.90;107814;1308;24185;-48
2023/09/02 02:34:36;;;;;;;11.10;6.10;;;;;;;15.04;94.70;99226.28;107839;1308;23096;-46
2023/09/02 02:37:02;;;;;;;10.50;6.20;;;;;;;15.00;94.66;99226.55;107784;1308;23141;-40
2023/09/02 02:39:29;;;;;;;14.20;6.10;;;;;;;14.98;94.85;99227.58;107800;1308;22537;-42
2023/09/02 02:43:37;;;;;;;12.40;6.30;;;;;;;14.95;95.56;99226.74;106808;1305;544879;-44
2023/09/02 02:46:03;;;;;;;9.90;6.00;;;;;;;14.91;96.38;99225.77;107254;1314;22217;-44
2023/09/02 02:48:30;;;;;;;11.70;6.00;;;;;;;14.89;96.14;99224.02;107202;1314;22375;-43
2023/09/02 02:50:55;;;;;;;13.30;5.70;;;;;;;14.86;96.57;99229.00;107384;1312;22900;-47
2023/09/02 02:53:21;;;;;;;15.80;6.00;;;;;;;14.82;97.11;99234.92;107366;1311;22240;-43
2023/09/02 02:55:46;;;;;;;11.20;5.60;;;;;;;14.80;97.18;99235.41;107380;1312;23351;-43
2023/09/02 02:58:12;;;;;;;11.40;6.50;;;;;;;14.80;96.95;99228.23;107455;1310;159703;-48
2023/09/02 03:00:39;;;;;;;15.60;6.20;;;;;;;14.79;97.29;99226.17;107595;1310;22266;-46
2023/09/02 03:03:05;;;;;;;17.50;6.10;;;;;;;14.75;97.62;99231.20;107579;1305;22294;-46
2023/09/02 03:05:35;;;;;;;11.00;5.50;;;;;;;14.71;97.98;99236.10;107634;1311;22413;-42
2023/09/02 03:08:00;;;;;;;10.90;5.60;;;;;;;14.68;97.95;99239.84;107610;1311;22239;-50
2023/09/02 03:10:26;;;;;;;17.10;6.70;;;;;;;14.66;98.08;99238.75;107582;1310;23116;-40
2023/09/02 03:12:51;;;;;;;11.20;6.10;;;;;;;14.63;97.74;99239.88;107604;1301;22420;-46
2023/09/02 03:15:16;;;;;;;10.70;6.10;;;;;;;14.60;97.77;99243.40;107575;1310;23014;-48
2023/09/02 03:17:42;;;;;;;13.80;6.10;;;;;;;14.57;98.16;99251.55;107571;1310;22374;-47
2023/09/02 03:20:08;;;;;;;9.10;6.00;;;;;;;14.54;98.61;99250.82;107554;1301;22251;-46
2023/09/02 03:22:33;;;;;;;9.50;6.30;;;;;;;14.52;99.07;99248.15;107629;1309;22262;-48
2023/09/02 03:24:58;;;;;;;10.30;6.30;;;;;;;14.51;99.09;99246.13;107587;1310;22982;-49
2023/09/02 03:27:23;;;;;;;9.30;6.00;;;;;;;14.50;98.59;99245.89;107580;1303;22234;-43
2023/09/02 03:29:50;;;;;;;13.00;6.50;;;;;;;14.47;98.82;99242.55;107597;1310;25108;-44
2023/09/02 03:32:16;;;;;;;13.10;6.50;;;;;;;14.45;98.64;99245.20;107587;1305;22287;-52
2023/09/02 03:34:41;;;;;;;13.30;6.00;;;;;;;14.43;98.15;99245.52;107600;1310;22444;-49
2023/09/02 03:37:06;;;;;;;17.80;6.40;;;;;;;14.41;98.11;99244.58;107579;1310;22226;-43
2023/09/02 03:39:33;;;;;;;13.80;6.60;;;;;;;14.40;99.42;99243.94;107589;1310;22245;-43
2023/09/02 03:42:01;;;;;;;9.70;6.00;;;;;;;14.39;99.61;99243.88;107620;1308;22248;-49
2023/09/02 03:44:26;;;;;;;17.90;6.60;;;;;;;14.37;99.89;99244.89;107713;1309;22399;-45
2023/09/02 03:46:52;;;;;;;12.10;6.90;;;;;;;14.36;99.53;99244.78;107688;1309;23196;-50
